Time;durP1;ratioP1;P1;durP2;ratioP2;P2;SDS_P1;SDS_P2;PMS_P1;PMS_P2;Temp;Humidity;BMP_temperature;BMP_pressure;BME280_temperature;BME280_humidity;BME280_pressure;Samples;Min_cycle;Max_cycle;Signal;HPM_P1;HPM_P2
2023/01/27 00:00:31;;;;;;;24.30;12.93;;;-0.20;99.90;;;;;;5033229;28;20192;-71
2023/01/27 00:02:57;;;;;;;18.40;12.43;;;-0.20;99.90;;;;;;5036383;28;20220;-71
2023/01/27 00:05:22;;;;;;;21.60;13.73;;;-0.10;99.90;;;;;;5037723;28;20713;-71
2023/01/27 00:07:48;;;;;;;22.67;13.93;;;-0.10;99.90;;;;;;5041363;28;20204;-71
2023/01/27 00:10:18;;;;;;;24.60;14.90;;;-0.10;99.90;;;;;;5038645;28;20180;-71
2023/01/27 00:15:30;;;;;;;25.03;14.00;;;-0.10;99.90;;;;;;5026782;28;20254;-70
2023/01/27 00:17:56;;;;;;;26.73;14.70;;;-0.10;99.90;;;;;;5040341;28;20185;-71
2023/01/27 00:26:05;;;;;;;20.80;14.23;;;-0.20;99.90;;;;;;5040409;28;20640;-71
2023/01/27 00:28:32;;;;;;;25.17;15.63;;;-0.20;99.90;;;;;;5031614;28;20216;-71
2023/01/27 00:30:58;;;;;;;25.20;14.13;;;-0.30;99.90;;;;;;5031575;28;20192;-71
2023/01/27 00:33:25;;;;;;;22.47;13.53;;;-0.40;99.90;;;;;;5041064;28;20183;-71
2023/01/27 00:36:06;;;;;;;21.47;13.30;;;-0.30;99.90;;;;;;5036591;28;20230;-71
2023/01/27 00:38:39;;;;;;;22.10;13.77;;;-0.30;99.90;;;;;;5036529;28;20172;-71
2023/01/27 00:41:14;;;;;;;23.63;15.10;;;-0.20;99.90;;;;;;5041352;28;20180;-71
2023/01/27 00:43:40;;;;;;;21.80;14.83;;;-0.20;99.90;;;;;;5041782;28;20569;-71
2023/01/27 00:46:06;;;;;;;22.50;13.87;;;-0.20;99.90;;;;;;5036901;28;20184;-71
2023/01/27 00:48:32;;;;;;;24.10;15.23;;;-0.10;99.90;;;;;;5028563;28;20208;-71
2023/01/27 00:50:58;;;;;;;26.73;14.83;;;-0.20;99.90;;;;;;5043397;28;20192;-71
2023/01/27 00:53:23;;;;;;;23.50;14.33;;;-0.30;99.90;;;;;;5045506;28;20234;-71
2023/01/27 00:55:49;;;;;;;24.60;15.07;;;-0.30;99.90;;;;;;5041038;28;20551;-71
2023/01/27 00:58:14;;;;;;;25.33;15.33;;;-0.30;99.90;;;;;;5031758;28;20263;-71
2023/01/27 01:00:40;;;;;;;22.47;13.80;;;-0.40;99.90;;;;;;5044020;28;20215;-71
2023/01/27 01:03:06;;;;;;;25.20;15.33;;;-0.40;99.90;;;;;;5035988;28;20242;-71
2023/01/27 01:05:31;;;;;;;23.80;14.20;;;-0.40;99.90;;;;;;5038386;28;20278;-71
2023/01/27 01:07:57;;;;;;;27.10;14.57;;;-0.40;99.90;;;;;;5030449;28;20817;-71
2023/01/27 01:10:22;;;;;;;25.80;15.50;;;-0.40;99.90;;;;;;5031704;28;20537;-71
2023/01/27 01:12:48;;;;;;;27.93;16.30;;;-0.40;99.90;;;;;;5043444;28;20302;-71
2023/01/27 01:15:14;;;;;;;24.50;15.33;;;-0.40;99.90;;;;;;5034145;28;20191;-71
2023/01/27 01:17:39;;;;;;;23.10;14.17;;;-0.40;99.90;;;;;;5044877;28;20262;-71
2023/01/27 01:20:06;;;;;;;23.50;14.07;;;-0.40;99.90;;;;;;5035748;28;20191;-71
2023/01/27 01:22:32;;;;;;;24.17;13.73;;;-0.30;99.90;;;;;;5032930;28;20207;-70
2023/01/27 01:24:57;;;;;;;22.67;14.07;;;-0.30;99.90;;;;;;5031448;28;20236;-70
2023/01/27 01:27:23;;;;;;;25.77;14.30;;;-0.30;99.90;;;;;;5038159;28;20250;-70
2023/01/27 01:29:48;;;;;;;24.37;14.17;;;-0.30;99.90;;;;;;5040888;28;20600;-70
2023/01/27 01:32:14;;;;;;;22.77;13.60;;;-0.30;99.90;;;;;;5043929;28;20690;-70
2023/01/27 01:34:40;;;;;;;26.23;14.83;;;-0.20;99.90;;;;;;5039944;28;20200;-71
2023/01/27 01:37:05;;;;;;;23.03;14.10;;;-0.20;99.90;;;;;;5040434;28;20188;-71
2023/01/27 01:39:31;;;;;;;23.77;14.90;;;-0.30;99.90;;;;;;5031889;28;20176;-71
2023/01/27 01:41:57;;;;;;;24.80;14.73;;;-0.20;99.90;;;;;;5025100;28;20275;-71
2023/01/27 01:44:26;;;;;;;23.77;14.27;;;-0.20;99.90;;;;;;5038173;28;20191;-71
2023/01/27 01:46:52;;;;;;;21.07;14.40;;;-0.20;99.90;;;;;;5032411;28;20656;-71
2023/01/27 01:49:21;;;;;;;23.20;14.47;;;-0.20;99.90;;;;;;5040367;28;20180;-70
2023/01/27 01:51:52;;;;;;;23.57;14.00;;;-0.30;99.90;;;;;;5028392;28;20184;-70
2023/01/27 01:54:22;;;;;;;21.90;13.67;;;-0.30;99.90;;;;;;5035941;28;20718;-70
2023/01/27 01:56:51;;;;;;;22.97;12.20;;;-0.10;99.90;;;;;;5034050;28;20296;-70
2023/01/27 01:59:22;;;;;;;21.17;12.77;;;-0.10;99.90;;;;;;5047204;28;20210;-70
2023/01/27 02:01:51;;;;;;;22.53;13.73;;;-0.10;99.90;;;;;;5027496;28;20177;-71
2023/01/27 02:04:24;;;;;;;27.30;15.20;;;-0.20;99.90;;;;;;5023815;28;20259;-71
2023/01/27 02:07:10;;;;;;;21.77;13.10;;;-0.30;99.90;;;;;;5029627;28;20192;-71
2023/01/27 02:09:37;;;;;;;21.97;14.30;;;-0.30;99.90;;;;;;5023840;28;20209;-71
2023/01/27 02:12:04;;;;;;;22.13;12.47;;;-0.30;99.90;;;;;;5024024;28;20257;-71
2023/01/27 02:14:30;;;;;;;26.03;14.57;;;-0.30;99.90;;;;;;5022039;28;20548;-71
2023/01/27 02:16:56;;;;;;;24.90;13.90;;;-0.20;99.90;;;;;;5028331;28;20234;-71
2023/01/27 02:20:10;;;;;;;24.40;15.00;;;-0.10;99.90;;;;;;5030667;28;20275;-71
2023/01/27 02:22:59;;;;;;;21.93;13.83;;;-0.10;99.90;;;;;;4996842;28;20674;-71
2023/01/27 02:25:33;;;;;;;25.87;15.27;;;-0.10;99.90;;;;;;5028309;28;20706;-72
2023/01/27 02:28:03;;;;;;;24.63;13.90;;;0.00;99.90;;;;;;5030605;28;20200;-71
2023/01/27 02:30:29;;;;;;;24.63;13.90;;;-0.10;99.90;;;;;;5030313;28;20209;-72
2023/01/27 02:32:54;;;;;;;22.73;13.97;;;-0.10;99.90;;;;;;5031174;28;20219;-71
2023/01/27 02:35:35;;;;;;;25.20;14.13;;;-0.10;99.90;;;;;;5028039;28;20211;-71
2023/01/27 02:38:02;;;;;;;26.20;14.30;;;-0.10;99.90;;;;;;5026829;28;20204;-72
2023/01/27 02:40:29;;;;;;;23.20;14.43;;;-0.10;99.90;;;;;;5029677;28;20183;-71
2023/01/27 02:42:56;;;;;;;23.63;13.37;;;-0.10;99.90;;;;;;5016738;28;20228;-70
2023/01/27 02:45:22;;;;;;;24.27;14.20;;;0.00;99.90;;;;;;5019178;28;20277;-72
2023/01/27 02:47:47;;;;;;;23.87;14.90;;;0.00;99.90;;;;;;5027342;28;20746;-71
2023/01/27 02:50:13;;;;;;;25.47;13.93;;;0.10;99.90;;;;;;5018579;28;20185;-70
2023/01/27 02:52:38;;;;;;;25.43;13.97;;;0.10;99.90;;;;;;5022405;28;20248;-70
2023/01/27 02:55:04;;;;;;;22.17;13.63;;;0.10;99.90;;;;;;5020169;28;20208;-71
2023/01/27 02:57:30;;;;;;;25.07;14.93;;;0.10;99.90;;;;;;5016609;28;20672;-70
2023/01/27 02:59:56;;;;;;;28.43;15.93;;;0.10;99.90;;;;;;5019789;28;20189;-71
2023/01/27 03:02:21;;;;;;;29.13;16.10;;;0.00;99.90;;;;;;5023280;28;20204;-70
2023/01/27 03:04:48;;;;;;;25.10;15.17;;;-0.10;99.90;;;;;;5023092;28;20505;-70
2023/01/27 03:07:14;;;;;;;25.33;15.13;;;-0.20;99.90;;;;;;5026678;28;20200;-71
2023/01/27 03:09:39;;;;;;;28.57;15.70;;;-0.30;99.90;;;;;;5031871;28;20176;-72
2023/01/27 03:12:20;;;;;;;26.83;15.80;;;-0.30;99.90;;;;;;5027826;28;20194;-71
2023/01/27 03:20:21;;;;;;;26.03;14.33;;;-0.30;99.90;;;;;;5033806;28;20259;-71
2023/01/27 03:22:47;;;;;;;29.60;15.97;;;-0.30;99.90;;;;;;5034517;28;20184;-72
2023/01/27 03:25:13;;;;;;;26.67;15.23;;;-0.30;99.90;;;;;;5038779;28;20210;-71
2023/01/27 03:27:38;;;;;;;29.50;15.73;;;-0.30;99.90;;;;;;5037175;28;20201;-71
2023/01/27 03:30:05;;;;;;;29.47;16.20;;;-0.20;99.90;;;;;;5027797;28;20181;-70
2023/01/27 03:32:32;;;;;;;25.10;14.87;;;-0.20;99.90;;;;;;5040140;28;20173;-70
2023/01/27 03:34:59;;;;;;;25.33;14.43;;;-0.20;99.90;;;;;;5040823;28;20348;-70
2023/01/27 03:48:27;;;;;;;25.43;15.27;;;-0.20;99.90;;;;;;5029165;28;20230;-71
2023/01/27 03:50:56;;;;;;;26.13;15.20;;;-0.30;99.90;;;;;;5036218;28;20255;-71
2023/01/27 03:53:22;;;;;;;29.93;16.63;;;-0.30;99.90;;;;;;5029504;28;20203;-70
2023/01/27 03:55:47;;;;;;;27.10;15.00;;;-0.30;99.90;;;;;;5036438;28;20208;-71
2023/01/27 03:58:25;;;;;;;28.83;16.27;;;-0.30;99.90;;;;;;5032415;28;20585;-71
2023/01/27 04:00:56;;;;;;;28.17;16.53;;;-0.20;99.90;;;;;;5032596;28;20723;-70
2023/01/27 04:09:03;;;;;;;28.57;15.93;;;-0.20;99.90;;;;;;5034240;28;20338;-71
2023/01/27 04:14:13;;;;;;;30.40;15.63;;;-0.10;99.90;;;;;;5026172;28;20223;-71
2023/01/27 04:16:38;;;;;;;27.80;15.87;;;-0.10;99.90;;;;;;5031446;28;20639;-71
2023/01/27 04:19:06;;;;;;;28.83;15.37;;;0.00;99.90;;;;;;5033101;28;20184;-71
2023/01/27 04:21:33;;;;;;;32.60;16.97;;;0.00;99.90;;;;;;5027618;28;20256;-71
2023/01/27 04:23:58;;;;;;;31.37;16.33;;;0.00;99.90;;;;;;5035334;28;20205;-72
2023/01/27 04:26:24;;;;;;;33.07;16.60;;;-0.10;99.90;;;;;;5038800;28;20242;-71
2023/01/27 04:28:50;;;;;;;28.77;15.83;;;-0.20;99.90;;;;;;5034754;28;20200;-71
2023/01/27 04:31:17;;;;;;;29.60;16.83;;;-0.20;99.90;;;;;;5031606;28;20180;-70
2023/01/27 04:33:43;;;;;;;28.50;16.60;;;-0.10;99.90;;;;;;5042064;28;20196;-72
2023/01/27 04:36:11;;;;;;;29.50;17.33;;;-0.20;99.90;;;;;;5036502;28;21084;-71
2023/01/27 04:38:37;;;;;;;30.57;16.80;;;-0.20;99.90;;;;;;5036092;28;20574;-72
2023/01/27 04:41:03;;;;;;;27.33;16.10;;;-0.20;99.90;;;;;;5034700;28;20173;-71
2023/01/27 04:43:28;;;;;;;29.27;16.67;;;-0.30;99.90;;;;;;5042887;28;20569;-71
2023/01/27 04:45:54;;;;;;;34.27;17.87;;;-0.20;99.90;;;;;;5040718;28;20187;-71
2023/01/27 04:48:19;;;;;;;29.83;16.17;;;-0.20;99.90;;;;;;5028927;28;20238;-70
2023/01/27 04:50:45;;;;;;;30.70;17.00;;;-0.20;99.90;;;;;;5039932;28;20671;-71
2023/01/27 04:53:10;;;;;;;28.27;16.90;;;-0.20;99.90;;;;;;5033900;28;20173;-70
2023/01/27 04:55:36;;;;;;;30.20;17.47;;;-0.20;99.90;;;;;;5037820;28;20307;-71
2023/01/27 04:58:03;;;;;;;31.60;17.23;;;-0.30;99.90;;;;;;5023141;28;20204;-71
2023/01/27 05:00:29;;;;;;;30.80;16.50;;;-0.30;99.90;;;;;;5030394;28;20226;-71
2023/01/27 05:02:55;;;;;;;33.10;16.53;;;-0.30;99.90;;;;;;5028725;28;20216;-71
2023/01/27 05:05:20;;;;;;;31.90;17.87;;;-0.30;99.90;;;;;;5030267;28;20219;-70
2023/01/27 05:07:46;;;;;;;28.63;17.27;;;-0.30;99.90;;;;;;5034954;28;20295;-71
2023/01/27 05:10:11;;;;;;;30.03;16.30;;;-0.30;99.90;;;;;;5031140;28;20550;-71
2023/01/27 05:12:37;;;;;;;29.37;17.30;;;-0.20;99.90;;;;;;5026558;28;20250;-71
2023/01/27 05:15:03;;;;;;;31.10;16.97;;;-0.20;99.90;;;;;;5026686;28;20244;-71
2023/01/27 05:17:32;;;;;;;30.33;17.67;;;-0.20;99.90;;;;;;5042809;28;20184;-71
2023/01/27 05:19:58;;;;;;;34.30;17.87;;;-0.20;99.90;;;;;;5029649;28;20250;-71
2023/01/27 05:22:24;;;;;;;31.93;18.07;;;-0.20;99.90;;;;;;5036660;28;20185;-71
2023/01/27 05:24:50;;;;;;;32.70;18.10;;;-0.20;99.90;;;;;;5034006;28;20196;-71
2023/01/27 05:27:16;;;;;;;36.53;18.20;;;-0.10;99.90;;;;;;5026245;28;20554;-71
2023/01/27 05:29:42;;;;;;;30.13;16.63;;;-0.10;99.90;;;;;;5031365;28;20192;-71
2023/01/27 05:32:07;;;;;;;30.40;16.80;;;-0.10;99.90;;;;;;5041921;28;20175;-71
2023/01/27 05:34:33;;;;;;;30.90;17.20;;;-0.10;99.90;;;;;;5020178;28;20212;-71
2023/01/27 05:36:58;;;;;;;36.90;18.00;;;-0.10;99.90;;;;;;5030053;28;20223;-71
2023/01/27 05:39:24;;;;;;;33.30;18.37;;;0.00;99.90;;;;;;5023288;28;20192;-71
2023/01/27 05:41:50;;;;;;;30.87;16.03;;;0.00;99.90;;;;;;5033818;28;20180;-71
2023/01/27 05:44:15;;;;;;;34.10;17.30;;;0.00;99.90;;;;;;5036582;28;20208;-71
2023/01/27 05:46:41;;;;;;;28.40;17.77;;;0.00;99.90;;;;;;5025679;28;20180;-70
2023/01/27 05:49:08;;;;;;;34.17;18.60;;;0.10;99.90;;;;;;5025218;28;20206;-70
2023/01/27 05:51:36;;;;;;;35.00;18.40;;;0.10;99.90;;;;;;5021335;28;20166;-71
2023/01/27 05:54:02;;;;;;;36.83;18.40;;;0.00;99.90;;;;;;5021732;28;20200;-71
2023/01/27 05:56:28;;;;;;;33.67;16.60;;;-0.10;99.90;;;;;;5037010;28;20176;-71
2023/01/27 05:58:55;;;;;;;40.03;19.53;;;0.00;99.90;;;;;;5032043;28;20192;-70
2023/01/27 06:01:26;;;;;;;37.20;17.93;;;0.10;99.90;;;;;;5027954;28;20180;-70
2023/01/27 06:03:52;;;;;;;35.80;18.57;;;0.00;99.90;;;;;;5032874;28;20239;-70
2023/01/27 06:06:20;;;;;;;32.53;15.97;;;0.00;99.90;;;;;;5028830;28;20592;-70
2023/01/27 06:08:46;;;;;;;32.57;18.17;;;0.10;99.90;;;;;;5030728;28;20208;-70
2023/01/27 06:11:13;;;;;;;38.73;18.43;;;0.10;99.90;;;;;;5027742;28;20603;-71
2023/01/27 06:13:39;;;;;;;34.93;17.40;;;0.00;99.90;;;;;;5029733;28;20600;-71
2023/01/27 06:16:10;;;;;;;29.87;17.77;;;0.10;99.90;;;;;;5022676;28;20173;-71
2023/01/27 06:18:37;;;;;;;32.77;17.57;;;0.00;99.90;;;;;;5024286;28;20250;-71
2023/01/27 06:21:04;;;;;;;34.63;18.37;;;0.00;99.90;;;;;;5028854;28;20231;-71
2023/01/27 06:23:31;;;;;;;38.83;18.50;;;0.00;99.90;;;;;;5027350;28;20271;-71
2023/01/27 06:26:01;;;;;;;36.73;18.10;;;0.00;99.90;;;;;;5018710;28;20185;-71
2023/01/27 06:28:26;;;;;;;31.83;16.97;;;0.00;99.90;;;;;;5024122;28;20582;-71
2023/01/27 06:30:52;;;;;;;30.83;16.70;;;0.00;99.90;;;;;;5017681;28;20177;-71
2023/01/27 06:33:17;;;;;;;30.37;17.67;;;0.00;99.90;;;;;;5018010;28;20181;-71
2023/01/27 06:35:43;;;;;;;31.47;16.33;;;0.00;99.90;;;;;;5022911;28;20208;-71
2023/01/27 06:38:13;;;;;;;26.97;16.93;;;0.20;99.90;;;;;;5017774;28;20259;-70
2023/01/27 06:40:38;;;;;;;30.07;17.40;;;0.20;99.90;;;;;;5021480;28;20801;-71
2023/01/27 06:43:08;;;;;;;30.27;17.27;;;0.20;99.90;;;;;;5021299;28;20180;-71
2023/01/27 06:45:34;;;;;;;29.33;16.23;;;0.30;99.90;;;;;;5019757;28;20232;-71
2023/01/27 06:48:00;;;;;;;30.63;16.17;;;0.40;99.90;;;;;;5030721;28;20200;-71
2023/01/27 06:50:28;;;;;;;30.87;16.17;;;0.30;99.90;;;;;;5029998;28;20206;-71
2023/01/27 06:53:04;;;;;;;25.40;14.33;;;0.40;99.90;;;;;;5025145;28;20180;-71
2023/01/27 06:55:30;;;;;;;31.08;16.15;;;0.40;99.90;;;;;;5031349;28;20211;-71
2023/01/27 06:57:56;;;;;;;23.33;13.80;;;0.40;99.90;;;;;;5028854;28;20180;-71
2023/01/27 07:00:21;;;;;;;29.40;16.03;;;0.50;99.90;;;;;;5029120;28;20271;-72
2023/01/27 07:02:47;;;;;;;29.03;15.37;;;0.40;99.90;;;;;;5028880;28;20655;-72
2023/01/27 07:05:13;;;;;;;27.57;15.50;;;0.30;99.90;;;;;;5036094;28;20282;-71
2023/01/27 07:07:39;;;;;;;23.30;14.50;;;0.30;99.90;;;;;;5029691;28;20731;-71
2023/01/27 07:10:06;;;;;;;27.27;15.47;;;0.30;99.90;;;;;;5031821;28;20264;-71
2023/01/27 07:12:34;;;;;;;25.37;14.67;;;0.20;99.90;;;;;;5031239;28;20187;-70
2023/01/27 07:15:00;;;;;;;28.87;15.90;;;0.20;99.90;;;;;;5027217;28;20188;-69
2023/01/27 07:17:25;;;;;;;22.47;15.47;;;0.20;99.90;;;;;;5023927;28;20185;-71
2023/01/27 07:19:51;;;;;;;29.10;16.60;;;0.20;99.90;;;;;;5031743;28;20655;-71
2023/01/27 07:22:16;;;;;;;23.47;14.60;;;0.20;99.90;;;;;;5030009;28;20614;-70
2023/01/27 07:24:42;;;;;;;21.97;14.40;;;0.20;99.90;;;;;;5025744;28;20642;-71
2023/01/27 07:27:07;;;;;;;29.07;16.53;;;0.20;99.90;;;;;;5026913;28;20467;-71
2023/01/27 07:29:33;;;;;;;30.30;15.57;;;0.20;99.90;;;;;;5025515;28;20184;-72
2023/01/27 07:31:58;;;;;;;24.43;14.97;;;0.20;99.90;;;;;;5023271;28;20722;-72
2023/01/27 07:34:24;;;;;;;25.13;15.07;;;0.10;99.90;;;;;;5025276;28;20592;-72
2023/01/27 07:36:50;;;;;;;29.23;16.20;;;0.10;99.90;;;;;;5021047;28;20181;-72
2023/01/27 07:39:16;;;;;;;25.47;16.30;;;0.20;99.90;;;;;;5030784;28;20253;-74
2023/01/27 07:41:42;;;;;;;25.33;16.33;;;0.20;99.90;;;;;;5033539;28;20278;-72
2023/01/27 07:44:09;;;;;;;28.80;15.90;;;0.20;99.90;;;;;;5030001;28;20220;-72
2023/01/27 07:46:34;;;;;;;27.07;15.87;;;0.20;99.90;;;;;;5029872;28;20750;-70
2023/01/27 07:49:00;;;;;;;28.10;17.13;;;0.30;99.90;;;;;;5034566;28;20304;-71
2023/01/27 07:51:26;;;;;;;31.27;17.13;;;0.30;99.90;;;;;;5034088;28;20177;-70
2023/01/27 07:53:51;;;;;;;27.93;16.93;;;0.40;99.90;;;;;;5027520;28;20616;-70
2023/01/27 07:56:17;;;;;;;26.07;15.00;;;0.50;99.90;;;;;;5035537;28;20522;-70
2023/01/27 07:58:42;;;;;;;27.87;16.97;;;0.50;99.90;;;;;;5028774;28;20192;-70
2023/01/27 08:01:10;;;;;;;25.17;14.57;;;0.50;99.90;;;;;;5042418;28;20190;-71
2023/01/27 08:03:35;;;;;;;25.67;16.37;;;0.50;99.90;;;;;;5034253;28;20189;-71
2023/01/27 08:06:09;;;;;;;25.77;15.67;;;0.50;99.90;;;;;;5031652;28;20299;-70
2023/01/27 08:08:35;;;;;;;27.50;15.37;;;0.50;99.90;;;;;;5025590;28;20205;-70
2023/01/27 08:11:09;;;;;;;26.53;15.50;;;0.50;99.90;;;;;;5014641;28;20174;-70
2023/01/27 08:13:35;;;;;;;28.50;17.63;;;0.50;99.90;;;;;;5030184;28;20197;-70
2023/01/27 08:16:07;;;;;;;26.33;14.93;;;0.40;99.90;;;;;;5031095;28;20203;-70
2023/01/27 08:18:33;;;;;;;28.77;16.63;;;0.30;99.90;;;;;;5023193;28;20177;-70
2023/01/27 08:21:00;;;;;;;27.53;15.73;;;0.40;99.90;;;;;;5023832;28;20185;-69
2023/01/27 08:23:26;;;;;;;31.00;17.03;;;0.50;99.90;;;;;;5022461;28;20197;-69
2023/01/27 08:25:53;;;;;;;29.57;18.50;;;0.60;99.90;;;;;;5025136;28;20243;-69
2023/01/27 08:28:19;;;;;;;32.37;17.93;;;0.70;99.90;;;;;;5023152;28;20207;-69
2023/01/27 08:30:45;;;;;;;28.20;16.57;;;0.60;99.90;;;;;;5024806;28;20188;-70
2023/01/27 08:33:12;;;;;;;28.23;17.30;;;0.60;99.90;;;;;;5025380;28;20178;-70
2023/01/27 08:35:41;;;;;;;26.50;16.87;;;0.60;99.90;;;;;;5038589;28;20218;-70
2023/01/27 08:38:07;;;;;;;24.70;16.43;;;0.60;99.90;;;;;;5043655;28;20275;-70
2023/01/27 08:40:33;;;;;;;27.27;16.37;;;0.60;99.90;;;;;;5032650;28;20952;-70
2023/01/27 08:43:00;;;;;;;28.53;16.80;;;0.70;99.90;;;;;;5019700;28;20192;-72
2023/01/27 08:45:26;;;;;;;28.03;17.40;;;0.70;99.90;;;;;;5029411;28;20682;-71
2023/01/27 08:47:52;;;;;;;30.03;16.70;;;0.70;99.90;;;;;;5043302;28;20199;-72
2023/01/27 08:50:17;;;;;;;27.40;15.75;;;0.70;99.90;;;;;;5032586;28;20287;-72
2023/01/27 08:52:43;;;;;;;23.08;15.25;;;0.80;99.90;;;;;;5039725;28;20188;-70
2023/01/27 08:55:09;;;;;;;24.10;15.40;;;0.90;99.90;;;;;;5035580;28;20196;-70
2023/01/27 08:57:35;;;;;;;29.17;16.77;;;0.90;99.90;;;;;;5035643;28;20467;-70
2023/01/27 09:00:00;;;;;;;24.48;14.88;;;0.90;99.90;;;;;;5032068;28;20235;-70
2023/01/27 09:02:26;;;;;;;23.63;15.57;;;1.00;99.90;;;;;;5021265;28;20220;-70
2023/01/27 09:04:52;;;;;;;24.63;15.47;;;1.00;99.90;;;;;;5020660;28;20220;-70
2023/01/27 09:07:18;;;;;;;27.17;15.95;;;0.90;99.90;;;;;;5024182;28;20184;-70
2023/01/27 09:09:47;;;;;;;25.05;14.85;;;0.90;99.90;;;;;;5030884;28;20192;-70
2023/01/27 09:12:13;;;;;;;21.92;13.88;;;1.00;99.90;;;;;;5023929;28;20185;-70
2023/01/27 09:14:39;;;;;;;23.42;14.57;;;1.10;99.90;;;;;;5023887;28;20211;-70
2023/01/27 09:17:04;;;;;;;27.38;16.27;;;1.20;99.90;;;;;;5035348;28;20191;-71
2023/01/27 09:19:30;;;;;;;22.17;14.23;;;1.20;99.90;;;;;;5021203;28;20204;-70
2023/01/27 09:21:56;;;;;;;21.75;14.63;;;1.20;99.90;;;;;;5036553;28;20189;-71
2023/01/27 09:24:22;;;;;;;21.75;14.30;;;1.20;99.90;;;;;;5026502;28;20200;-71
2023/01/27 09:26:47;;;;;;;20.90;13.77;;;1.10;99.90;;;;;;5022245;28;20193;-71
2023/01/27 09:29:13;;;;;;;21.10;14.50;;;1.10;99.90;;;;;;5030833;28;20697;-70
2023/01/27 09:31:38;;;;;;;24.73;14.13;;;1.20;99.90;;;;;;5025550;28;20181;-70
2023/01/27 09:34:04;;;;;;;19.83;13.63;;;1.20;99.90;;;;;;5024582;28;20255;-71
2023/01/27 09:36:32;;;;;;;23.80;13.63;;;1.20;99.90;;;;;;5022067;28;20177;-72
2023/01/27 09:39:02;;;;;;;21.27;13.90;;;1.30;99.90;;;;;;5031216;28;20208;-72
2023/01/27 09:41:51;;;;;;;22.65;13.93;;;1.30;99.90;;;;;;5026897;28;20195;-70
2023/01/27 09:44:33;;;;;;;21.90;13.35;;;1.30;99.90;;;;;;5020371;28;20702;-70
2023/01/27 09:47:36;;;;;;;22.58;12.73;;;1.40;99.90;;;;;;5019135;28;20181;-71
2023/01/27 09:50:35;;;;;;;20.40;13.80;;;1.30;99.90;;;;;;5022509;28;20181;-71
2023/01/27 09:53:19;;;;;;;23.33;13.23;;;1.40;99.90;;;;;;5025288;28;20177;-71
2023/01/27 09:55:52;;;;;;;18.80;12.90;;;1.50;99.90;;;;;;5029316;28;20246;-71
2023/01/27 09:58:32;;;;;;;17.38;12.70;;;1.60;99.90;;;;;;5021787;28;20240;-71
2023/01/27 10:01:00;;;;;;;20.88;12.82;;;1.70;99.90;;;;;;5023038;28;20181;-71
2023/01/27 10:03:32;;;;;;;20.90;12.55;;;1.60;99.90;;;;;;5018140;28;20895;-71
2023/01/27 10:06:21;;;;;;;16.90;11.07;;;1.50;99.90;;;;;;5028934;28;20196;-71
2023/01/27 10:09:10;;;;;;;20.20;14.07;;;1.50;99.90;;;;;;5022538;28;20213;-70
2023/01/27 10:11:43;;;;;;;20.48;13.13;;;1.50;99.90;;;;;;5027450;28;20180;-70
2023/01/27 10:14:29;;;;;;;15.40;11.35;;;1.40;99.90;;;;;;5028630;28;20565;-70
2023/01/27 10:17:10;;;;;;;15.57;11.07;;;1.50;99.90;;;;;;5029175;28;20224;-71
2023/01/27 10:20:05;;;;;;;19.17;13.00;;;1.50;99.90;;;;;;5023344;28;20189;-70
2023/01/27 10:22:30;;;;;;;18.15;11.68;;;1.50;99.90;;;;;;5034394;28;20592;-71
2023/01/27 10:25:22;;;;;;;19.02;12.38;;;1.70;99.90;;;;;;5030886;28;20204;-71
2023/01/27 10:27:55;;;;;;;15.55;12.32;;;1.60;99.90;;;;;;5019003;28;20247;-72
2023/01/27 10:30:34;;;;;;;16.52;11.98;;;1.50;99.90;;;;;;5023731;28;20558;-72
2023/01/27 10:33:14;;;;;;;18.20;12.93;;;1.40;99.90;;;;;;5036302;28;20172;-72
2023/01/27 10:35:48;;;;;;;20.70;12.23;;;1.50;99.90;;;;;;5045319;28;20758;-73
2023/01/27 10:38:26;;;;;;;19.20;12.80;;;1.50;99.90;;;;;;5032392;28;20184;-73
2023/01/27 10:41:21;;;;;;;18.77;12.10;;;1.70;99.90;;;;;;5019947;28;20182;-72
2023/01/27 10:44:13;;;;;;;17.02;13.00;;;1.90;99.90;;;;;;5018410;28;20344;-74
2023/01/27 10:47:04;;;;;;;19.30;12.98;;;1.70;99.90;;;;;;5023854;28;20192;-74
2023/01/27 10:49:40;;;;;;;16.52;12.40;;;1.70;99.90;;;;;;5021832;28;20239;-73
2023/01/27 10:52:14;;;;;;;16.95;12.73;;;1.70;99.90;;;;;;5031360;28;20191;-72
2023/01/27 10:54:58;;;;;;;21.33;13.07;;;1.70;99.90;;;;;;5040686;28;20203;-73
2023/01/27 10:57:39;;;;;;;18.83;12.30;;;1.60;99.90;;;;;;5046064;28;20222;-74
2023/01/27 11:00:20;;;;;;;17.48;12.07;;;1.60;99.90;;;;;;5033794;28;20179;-75
2023/01/27 11:02:59;;;;;;;16.50;12.57;;;1.80;99.90;;;;;;5026157;28;20208;-73
2023/01/27 11:05:35;;;;;;;18.52;12.45;;;2.10;99.90;;;;;;5030683;28;20227;-74
2023/01/27 11:08:19;;;;;;;21.02;13.65;;;2.20;99.90;;;;;;5037562;28;20198;-74
2023/01/27 11:13:34;;;;;;;16.77;11.88;;;2.30;99.90;;;;;;5025008;28;20200;-74
2023/01/27 11:16:01;;;;;;;17.73;12.35;;;2.60;99.90;;;;;;5037771;28;20544;-74
2023/01/27 11:18:31;;;;;;;17.23;12.05;;;2.80;99.90;;;;;;5041058;28;20505;-73
2023/01/27 11:21:04;;;;;;;15.90;12.00;;;3.20;99.90;;;;;;5033339;28;20189;-73
2023/01/27 11:23:34;;;;;;;16.40;12.00;;;3.40;99.90;;;;;;5032168;28;20220;-73
2023/01/27 11:26:26;;;;;;;15.60;12.52;;;3.30;99.90;;;;;;5027484;28;20226;-73
2023/01/27 11:29:18;;;;;;;14.73;11.35;;;3.10;99.90;;;;;;5031559;28;20580;-73
2023/01/27 11:32:02;;;;;;;15.38;11.25;;;2.90;99.90;;;;;;5031177;28;20196;-73
2023/01/27 11:34:48;;;;;;;15.65;11.95;;;2.90;99.90;;;;;;5034654;28;20328;-73
2023/01/27 11:37:17;;;;;;;18.23;12.48;;;2.70;99.90;;;;;;5027705;28;20183;-73
2023/01/27 11:39:42;;;;;;;15.95;11.88;;;2.60;99.90;;;;;;5027986;28;20187;-73
2023/01/27 11:42:09;;;;;;;17.30;11.93;;;2.70;99.90;;;;;;5030904;28;20176;-74
2023/01/27 11:44:35;;;;;;;17.85;11.82;;;2.70;99.90;;;;;;5028278;28;20208;-73
2023/01/27 11:47:02;;;;;;;17.20;11.63;;;2.70;99.90;;;;;;5036195;28;20180;-74
2023/01/27 11:49:29;;;;;;;18.63;12.05;;;2.80;99.90;;;;;;5029929;28;20255;-73
2023/01/27 11:52:04;;;;;;;16.95;13.07;;;3.00;99.90;;;;;;5032019;28;20176;-74
2023/01/27 11:54:35;;;;;;;19.13;12.32;;;2.90;99.90;;;;;;5035222;28;20218;-73
2023/01/27 11:57:01;;;;;;;16.95;12.90;;;2.80;99.90;;;;;;5023518;28;20185;-74
2023/01/27 11:59:33;;;;;;;18.10;12.40;;;2.80;99.90;;;;;;5029017;28;20192;-74
2023/01/27 12:02:21;;;;;;;19.58;13.55;;;3.00;99.90;;;;;;5031748;28;20193;-74
2023/01/27 12:05:07;;;;;;;16.92;12.75;;;3.00;99.90;;;;;;5032041;28;20239;-73
2023/01/27 12:07:46;;;;;;;16.63;11.75;;;3.00;99.90;;;;;;5032572;28;20245;-74
2023/01/27 12:10:20;;;;;;;17.38;13.55;;;2.90;99.90;;;;;;5030106;28;20756;-75
2023/01/27 12:12:46;;;;;;;18.95;13.10;;;2.60;99.90;;;;;;5029760;28;20184;-75
2023/01/27 12:15:16;;;;;;;19.48;12.50;;;2.50;99.90;;;;;;5033882;28;20199;-73
2023/01/27 12:17:55;;;;;;;18.98;13.38;;;2.40;99.90;;;;;;5025081;28;20182;-75
2023/01/27 12:20:20;;;;;;;20.10;12.85;;;2.40;99.90;;;;;;5030251;28;20267;-74
2023/01/27 12:22:51;;;;;;;18.30;13.38;;;2.60;99.90;;;;;;5030301;28;20501;-76
2023/01/27 12:25:28;;;;;;;19.67;12.95;;;2.80;99.90;;;;;;5038218;28;20211;-82
2023/01/27 12:28:01;;;;;;;20.63;14.05;;;2.70;99.90;;;;;;5032719;28;20204;-76
2023/01/27 12:30:34;;;;;;;20.63;13.55;;;2.60;99.90;;;;;;5029808;28;20191;-75
2023/01/27 12:33:11;;;;;;;22.55;13.50;;;2.60;99.90;;;;;;5032109;28;20180;-77
2023/01/27 12:35:38;;;;;;;19.83;14.30;;;2.60;99.90;;;;;;5024924;28;20692;-80
2023/01/27 12:38:16;;;;;;;20.00;14.45;;;2.60;99.90;;;;;;5034592;28;20640;-76
2023/01/27 12:40:44;;;;;;;20.00;13.02;;;2.40;99.90;;;;;;5030983;28;20203;-75
2023/01/27 12:43:11;;;;;;;18.73;13.27;;;2.40;99.90;;;;;;5038942;28;20195;-78
2023/01/27 12:45:43;;;;;;;19.70;13.38;;;2.50;99.90;;;;;;5040402;28;20204;-78
2023/01/27 12:48:09;;;;;;;18.27;13.85;;;2.60;99.90;;;;;;5031137;28;20713;-78
2023/01/27 12:50:38;;;;;;;19.88;14.20;;;2.70;99.90;;;;;;5039054;28;20177;-78
2023/01/27 12:53:11;;;;;;;18.88;13.55;;;2.60;99.90;;;;;;5040288;28;20255;-78
2023/01/27 12:56:00;;;;;;;18.85;12.05;;;2.40;99.90;;;;;;5033699;28;20200;-76
2023/01/27 12:58:55;;;;;;;18.70;12.50;;;2.40;99.90;;;;;;5041436;28;20230;-76
2023/01/27 13:01:29;;;;;;;16.38;12.60;;;2.30;99.90;;;;;;5026498;28;20549;-77
2023/01/27 13:04:19;;;;;;;18.17;12.32;;;2.20;99.90;;;;;;5032280;28;20204;-76
2023/01/27 13:06:46;;;;;;;15.50;11.55;;;2.20;99.90;;;;;;5031448;28;20569;-75
2023/01/27 13:09:35;;;;;;;16.77;11.65;;;2.20;99.90;;;;;;5027924;28;20197;-75
2023/01/27 13:12:24;;;;;;;19.27;12.75;;;2.10;99.90;;;;;;5042784;28;20222;-74
2023/01/27 13:14:58;;;;;;;14.77;11.57;;;2.00;99.90;;;;;;5034612;28;20209;-75
2023/01/27 13:17:35;;;;;;;16.05;11.18;;;1.90;99.90;;;;;;5032450;28;20270;-75
2023/01/27 13:20:36;;;;;;;15.95;11.50;;;1.70;99.90;;;;;;5045079;28;20176;-74
2023/01/27 13:23:10;;;;;;;17.20;12.38;;;1.50;99.90;;;;;;5036209;28;20557;-76